createdAt,value
2023-09-17T00:00:21.541Z,6.22
2023-09-17T00:02:48.708Z,6.07
2023-09-17T00:05:15.586Z,6.25
2023-09-17T00:07:43.233Z,5.68
2023-09-17T00:10:10.629Z,6.28
2023-09-17T00:12:37.593Z,5.55
2023-09-17T00:15:05.367Z,5.10
2023-09-17T00:17:32.218Z,5.18
2023-09-17T00:19:59.070Z,5.28
2023-09-17T00:22:26.092Z,5.13
2023-09-17T00:24:52.927Z,4.75
2023-09-17T00:27:19.635Z,4.68
2023-09-17T00:29:46.355Z,5.00
2023-09-17T00:32:13.084Z,5.22
2023-09-17T00:34:40.027Z,5.50
2023-09-17T00:37:08.681Z,4.78
2023-09-17T00:39:35.427Z,4.93
2023-09-17T00:42:02.226Z,5.40
2023-09-17T00:44:29.017Z,5.38
2023-09-17T00:46:57.341Z,4.82
2023-09-17T00:49:24.585Z,4.93
2023-09-17T00:51:51.443Z,5.38
2023-09-17T00:54:18.620Z,5.03
2023-09-17T00:56:45.666Z,6.25
2023-09-17T00:59:12.939Z,5.95
2023-09-17T01:01:39.762Z,5.70
2023-09-17T01:04:09.083Z,5.82
2023-09-17T01:06:40.086Z,5.20
2023-09-17T01:09:10.237Z,5.43
2023-09-17T01:11:37.473Z,4.93
2023-09-17T01:14:13.910Z,5.60
2023-09-17T01:16:42.687Z,5.10
2023-09-17T01:19:19.896Z,5.30
2023-09-17T01:21:55.282Z,5.18
2023-09-17T01:24:28.037Z,5.60
2023-09-17T01:27:14.308Z,5.38
2023-09-17T01:29:42.956Z,5.72
2023-09-17T01:32:13.507Z,5.90
2023-09-17T01:34:45.493Z,6.22
2023-09-17T01:37:24.379Z,5.80
2023-09-17T01:39:58.176Z,5.35
2023-09-17T01:42:26.759Z,5.47
2023-09-17T01:44:56.589Z,5.07
2023-09-17T01:47:24.953Z,5.05
2023-09-17T01:49:52.131Z,5.72
2023-09-17T01:52:23.641Z,5.38
2023-09-17T01:54:51.413Z,5.78
2023-09-17T01:57:18.167Z,6.20
2023-09-17T01:59:44.895Z,5.32
2023-09-17T02:02:11.739Z,5.93
2023-09-17T02:04:38.722Z,5.55
2023-09-17T02:07:05.486Z,6.82
2023-09-17T02:09:32.208Z,6.30
2023-09-17T02:11:58.939Z,5.70
2023-09-17T02:14:25.666Z,6.07
2023-09-17T02:16:52.632Z,5.78
2023-09-17T02:19:19.420Z,5.97
2023-09-17T02:21:46.174Z,5.70
2023-09-17T02:24:13.950Z,6.65
2023-09-17T02:26:42.136Z,6.32
2023-09-17T02:29:08.962Z,5.82
2023-09-17T02:31:36.069Z,6.18
2023-09-17T02:34:03.348Z,5.53
2023-09-17T02:36:30.067Z,6.70
2023-09-17T02:38:57.625Z,6.07
2023-09-17T02:41:24.398Z,6.47
2023-09-17T02:43:51.274Z,6.30
2023-09-17T02:46:19.546Z,6.30
2023-09-17T02:48:48.835Z,6.82
2023-09-17T02:51:16.488Z,6.85
2023-09-17T02:53:43.518Z,5.97
2023-09-17T02:56:10.237Z,6.60
2023-09-17T02:58:37.085Z,7.03
2023-09-17T03:01:16.305Z,6.38
2023-09-17T03:03:43.131Z,7.18
2023-09-17T03:06:11.795Z,6.35
2023-09-17T03:08:43.387Z,6.55
2023-09-17T03:13:48.915Z,6.35
2023-09-17T03:16:20.203Z,6.60
2023-09-17T03:18:47.136Z,6.70
2023-09-17T03:21:14.039Z,6.18
2023-09-17T03:23:40.804Z,5.53
2023-09-17T03:26:10.308Z,5.85
2023-09-17T03:28:37.219Z,6.15
2023-09-17T03:31:05.360Z,5.80
2023-09-17T03:33:32.710Z,6.18
2023-09-17T03:36:00.462Z,5.60
2023-09-17T03:38:27.250Z,6.20
2023-09-17T03:40:54.329Z,6.35
2023-09-17T03:43:21.276Z,5.60
2023-09-17T03:45:48.669Z,6.05
2023-09-17T03:48:15.586Z,5.75
2023-09-17T03:50:43.937Z,5.78
2023-09-17T03:53:11.521Z,6.30
2023-09-17T03:55:39.233Z,6.32
2023-09-17T03:58:07.010Z,6.20
2023-09-17T04:00:40.333Z,6.32
2023-09-17T04:03:09.611Z,6.20
2023-09-17T04:05:37.479Z,6.40
2023-09-17T04:08:04.554Z,6.32
2023-09-17T04:10:31.739Z,6.25
2023-09-17T04:12:58.468Z,6.93
2023-09-17T04:15:25.219Z,6.45
2023-09-17T04:17:52.797Z,6.93
2023-09-17T04:20:20.667Z,6.78
2023-09-17T04:22:50.274Z,5.97
2023-09-17T04:25:20.054Z,5.70
2023-09-17T04:27:49.094Z,6.50
2023-09-17T04:30:19.111Z,6.25
2023-09-17T04:32:48.076Z,6.45
2023-09-17T04:35:19.795Z,6.72
2023-09-17T04:40:19.405Z,5.90
2023-09-17T04:42:49.631Z,6.00
2023-09-17T04:45:39.173Z,6.18
2023-09-17T04:50:49.791Z,6.38
2023-09-17T04:53:17.983Z,6.40
2023-09-17T04:55:46.737Z,6.43
2023-09-17T04:58:15.566Z,6.43
2023-09-17T05:00:43.024Z,6.40
2023-09-17T05:03:09.876Z,6.40
2023-09-17T05:05:36.703Z,5.95
2023-09-17T05:08:04.491Z,6.82
2023-09-17T05:10:31.294Z,6.20
2023-09-17T05:12:58.337Z,6.55
2023-09-17T05:15:25.700Z,6.40
2023-09-17T05:17:55.756Z,6.95
2023-09-17T05:20:23.219Z,7.43
2023-09-17T05:22:50.448Z,7.20
2023-09-17T05:25:17.338Z,6.47
2023-09-17T05:27:45.099Z,7.28
2023-09-17T05:30:13.318Z,6.53
2023-09-17T05:32:40.608Z,6.85
2023-09-17T05:35:09.040Z,7.15
2023-09-17T05:37:36.512Z,6.53
2023-09-17T05:40:08.018Z,7.30
2023-09-17T05:42:34.938Z,7.00
2023-09-17T05:45:02.037Z,7.25
2023-09-17T05:47:29.870Z,7.28
2023-09-17T05:49:59.042Z,7.20
2023-09-17T05:52:29.887Z,7.40
2023-09-17T05:54:56.891Z,6.88
2023-09-17T05:57:23.583Z,7.32
2023-09-17T05:59:50.535Z,6.50
2023-09-17T06:02:17.329Z,7.35
2023-09-17T06:04:44.950Z,7.97
2023-09-17T06:07:11.715Z,8.30
2023-09-17T06:09:38.467Z,7.78
2023-09-17T06:12:06.008Z,8.00
2023-09-17T06:14:33.103Z,8.07
2023-09-17T06:16:59.865Z,8.13
2023-09-17T06:19:30.502Z,7.70
2023-09-17T06:21:57.757Z,8.00
2023-09-17T06:24:24.566Z,8.90
2023-09-17T06:26:51.644Z,8.55
2023-09-17T06:29:19.123Z,8.07
2023-09-17T06:31:46.654Z,8.35
2023-09-17T06:34:13.935Z,8.93
2023-09-17T06:36:40.682Z,9.23
2023-09-17T06:39:08.178Z,8.93
2023-09-17T06:41:38.058Z,8.65
2023-09-17T06:44:07.208Z,8.45
2023-09-17T06:46:34.338Z,8.63
2023-09-17T06:49:01.781Z,8.65
2023-09-17T06:51:28.575Z,8.57
2023-09-17T06:53:55.417Z,9.20
2023-09-17T06:56:25.163Z,8.18
2023-09-17T06:58:52.163Z,8.43
2023-09-17T07:01:19.498Z,8.80
2023-09-17T07:03:46.260Z,9.07
2023-09-17T07:06:12.978Z,9.20
2023-09-17T07:08:39.742Z,9.23
2023-09-17T07:11:06.564Z,9.35
2023-09-17T07:13:33.410Z,9.10
2023-09-17T07:16:00.556Z,9.15
2023-09-17T07:18:27.626Z,8.85
2023-09-17T07:20:54.429Z,8.68
2023-09-17T07:23:21.149Z,8.75
2023-09-17T07:25:48.175Z,9.35
2023-09-17T07:28:15.090Z,9.07
2023-09-17T07:30:41.914Z,8.90
2023-09-17T07:33:08.792Z,8.95
2023-09-17T07:35:39.258Z,9.60
2023-09-17T07:38:06.580Z,8.88
2023-09-17T07:40:34.506Z,9.50
2023-09-17T07:43:02.430Z,9.30
2023-09-17T07:45:29.358Z,9.00
2023-09-17T07:47:56.739Z,9.02
2023-09-17T07:50:23.571Z,8.90
2023-09-17T07:52:50.372Z,9.00
2023-09-17T07:55:20.188Z,8.95
2023-09-17T07:57:47.462Z,9.25
2023-09-17T08:00:17.301Z,9.18
2023-09-17T08:02:45.869Z,8.80
2023-09-17T08:05:13.219Z,8.38
2023-09-17T08:07:43.544Z,8.18
2023-09-17T08:10:11.111Z,8.18
2023-09-17T08:12:38.028Z,7.45
2023-09-17T08:15:05.220Z,6.82
2023-09-17T08:17:32.111Z,6.90
2023-09-17T08:19:59.938Z,6.85
2023-09-17T08:22:28.579Z,6.82
2023-09-17T08:24:55.363Z,5.90
2023-09-17T08:27:22.898Z,6.13
2023-09-17T08:29:49.761Z,5.97
2023-09-17T08:32:16.637Z,5.72
2023-09-17T08:34:43.410Z,5.28
2023-09-17T08:37:10.322Z,6.05
2023-09-17T08:39:37.202Z,6.30
2023-09-17T08:42:04.808Z,5.63
2023-09-17T08:44:37.086Z,4.95
2023-09-17T08:47:04.137Z,5.80
2023-09-17T08:49:31.121Z,5.07
2023-09-17T08:52:01.044Z,4.35
2023-09-17T08:54:38.638Z,3.78
2023-09-17T08:57:06.807Z,3.30
2023-09-17T08:59:38.486Z,3.67
2023-09-17T09:04:37.943Z,5.07
2023-09-17T09:07:07.112Z,4.50
2023-09-17T09:09:37.413Z,3.97
2023-09-17T09:12:05.151Z,4.22
2023-09-17T09:14:32.380Z,4.28
2023-09-17T09:17:02.996Z,4.07
2023-09-17T09:19:29.837Z,3.85
2023-09-17T09:21:56.688Z,3.03
2023-09-17T09:24:30.785Z,2.95
2023-09-17T09:26:59.843Z,3.20
2023-09-17T09:29:28.960Z,3.50
2023-09-17T09:31:58.216Z,3.17
2023-09-17T09:34:26.583Z,2.78
2023-09-17T09:36:53.371Z,3.75
2023-09-17T09:39:22.043Z,3.97
2023-09-17T09:41:49.593Z,4.57
2023-09-17T09:44:19.479Z,3.70
2023-09-17T09:46:46.233Z,3.70
2023-09-17T09:49:13.138Z,3.65
2023-09-17T09:51:39.846Z,3.35
2023-09-17T09:54:06.684Z,3.05
2023-09-17T09:56:33.523Z,2.63
2023-09-17T09:59:01.647Z,2.85
2023-09-17T10:01:29.527Z,3.28
2023-09-17T10:03:59.803Z,2.70
2023-09-17T10:06:27.200Z,2.72
2023-09-17T10:08:54.521Z,3.38
2023-09-17T10:11:23.517Z,3.60
2023-09-17T10:13:54.756Z,3.50
2023-09-17T10:18:51.416Z,3.13
2023-09-17T10:21:19.686Z,3.05
2023-09-17T10:23:46.989Z,3.63
2023-09-17T10:26:16.629Z,3.40
2023-09-17T10:28:45.469Z,2.92
2023-09-17T10:31:13.369Z,3.08
2023-09-17T10:33:44.564Z,3.25
2023-09-17T10:36:13.659Z,2.80
2023-09-17T10:38:42.345Z,2.60
2023-09-17T10:41:11.505Z,2.75
2023-09-17T10:43:38.522Z,2.53
2023-09-17T10:46:08.789Z,2.47
2023-09-17T10:48:35.691Z,2.90
2023-09-17T10:51:02.569Z,2.50
2023-09-17T10:53:29.401Z,2.67
2023-09-17T10:56:11.524Z,2.97
2023-09-17T10:58:39.907Z,2.83
2023-09-17T11:01:10.252Z,3.00
2023-09-17T11:03:41.066Z,2.80
2023-09-17T11:06:25.029Z,3.08
2023-09-17T11:08:55.052Z,2.63
2023-09-17T11:11:25.220Z,2.50
2023-09-17T11:13:53.834Z,2.60
2023-09-17T11:16:22.195Z,2.08
2023-09-17T11:19:11.927Z,2.75
2023-09-17T11:21:41.143Z,2.10
2023-09-17T11:24:12.158Z,2.50
2023-09-17T11:26:43.818Z,2.25
2023-09-17T11:29:11.138Z,2.60
2023-09-17T11:32:01.376Z,2.13
2023-09-17T11:34:28.354Z,2.10
2023-09-17T11:36:56.193Z,2.20
2023-09-17T11:39:23.687Z,2.35
2023-09-17T11:41:56.640Z,1.80
2023-09-17T11:44:24.153Z,1.98
2023-09-17T11:46:51.286Z,1.90
2023-09-17T11:49:19.471Z,2.17
2023-09-17T11:51:47.744Z,1.33
2023-09-17T11:54:20.013Z,2.05
2023-09-17T11:56:54.924Z,1.80
2023-09-17T11:59:23.001Z,1.48
2023-09-17T12:01:58.541Z,1.95
2023-09-17T12:04:30.726Z,1.90
2023-09-17T12:06:58.548Z,1.67
2023-09-17T12:09:32.254Z,1.40
2023-09-17T12:12:00.565Z,1.55
2023-09-17T12:14:27.803Z,1.60
2023-09-17T12:16:54.830Z,1.83
2023-09-17T12:19:22.318Z,1.58
2023-09-17T12:21:52.114Z,1.70
2023-09-17T12:24:47.519Z,1.55
2023-09-17T12:27:26.054Z,1.48
2023-09-17T12:29:54.807Z,1.63
2023-09-17T12:32:25.962Z,1.42
2023-09-17T12:34:54.797Z,1.67
2023-09-17T12:37:22.657Z,1.48
2023-09-17T12:39:50.969Z,2.20
2023-09-17T12:42:18.756Z,1.60
2023-09-17T12:44:45.752Z,2.05
2023-09-17T12:47:12.987Z,1.60
2023-09-17T12:49:40.312Z,1.50
2023-09-17T12:52:08.595Z,1.50
2023-09-17T12:54:35.631Z,1.80
2023-09-17T12:57:02.382Z,2.10
2023-09-17T12:59:34.483Z,1.27
2023-09-17T13:02:04.963Z,1.40
2023-09-17T13:04:42.152Z,1.58
2023-09-17T13:07:20.564Z,1.48
2023-09-17T13:09:49.036Z,1.70
2023-09-17T13:12:19.607Z,2.17
2023-09-17T13:14:49.019Z,1.30
2023-09-17T13:17:17.218Z,1.90
2023-09-17T13:19:44.441Z,1.92
2023-09-17T13:22:12.750Z,1.60
2023-09-17T13:24:41.178Z,2.10
2023-09-17T13:27:09.846Z,1.42
2023-09-17T13:29:38.318Z,1.60
2023-09-17T13:32:08.734Z,1.50
2023-09-17T13:34:35.782Z,1.30
2023-09-17T13:37:02.788Z,1.55
2023-09-17T13:39:29.582Z,1.77
2023-09-17T13:42:01.612Z,1.63
2023-09-17T13:44:28.434Z,1.70
2023-09-17T13:46:57.098Z,1.67
2023-09-17T13:49:23.984Z,1.90
2023-09-17T13:51:50.815Z,2.10
2023-09-17T13:54:17.535Z,1.95
2023-09-17T13:56:44.596Z,1.92
2023-09-17T13:59:11.360Z,1.60
2023-09-17T14:01:40.246Z,1.90
2023-09-17T14:04:07.328Z,1.90
2023-09-17T14:06:34.065Z,1.73
2023-09-17T14:09:00.749Z,1.80
2023-09-17T14:11:28.449Z,2.10
2023-09-17T14:13:55.317Z,2.35
2023-09-17T14:16:22.081Z,2.13
2023-09-17T14:18:51.909Z,1.83
2023-09-17T14:21:18.955Z,1.80
2023-09-17T14:23:45.772Z,2.03
2023-09-17T14:26:12.558Z,1.85
2023-09-17T14:28:39.332Z,1.90
2023-09-17T14:31:06.080Z,2.25
2023-09-17T14:33:32.919Z,2.08
2023-09-17T14:35:59.651Z,1.90
2023-09-17T14:38:26.349Z,2.00
2023-09-17T14:40:53.102Z,1.85
2023-09-17T14:43:20.760Z,2.20
2023-09-17T14:45:47.620Z,1.88
2023-09-17T14:48:14.396Z,2.10
2023-09-17T14:50:41.093Z,1.95
2023-09-17T14:53:07.833Z,1.95
2023-09-17T14:55:34.530Z,1.85
2023-09-17T14:58:01.272Z,1.58
2023-09-17T15:00:28.078Z,1.73
2023-09-17T15:02:55.062Z,1.88
2023-09-17T15:05:21.943Z,1.73
2023-09-17T15:07:48.794Z,1.50
2023-09-17T15:10:15.555Z,1.85
2023-09-17T15:12:42.284Z,2.00
2023-09-17T15:15:09.442Z,1.40
2023-09-17T15:17:37.136Z,1.27
2023-09-17T15:20:05.734Z,1.50
2023-09-17T15:22:34.647Z,1.50
2023-09-17T15:25:01.504Z,1.65
2023-09-17T15:27:29.189Z,1.48
2023-09-17T15:29:55.966Z,1.70
2023-09-17T15:32:24.119Z,1.60
2023-09-17T15:34:51.443Z,1.80
2023-09-17T15:37:18.315Z,2.17
2023-09-17T15:39:45.885Z,2.20
2023-09-17T15:42:12.693Z,1.50
2023-09-17T15:44:39.370Z,1.58
2023-09-17T15:47:06.141Z,1.90
2023-09-17T15:49:32.908Z,1.55
2023-09-17T15:51:59.808Z,1.50
2023-09-17T15:54:26.585Z,1.77
2023-09-17T15:56:53.365Z,1.90
2023-09-17T15:59:20.108Z,1.90
2023-09-17T16:01:47.014Z,1.70
2023-09-17T16:04:13.892Z,1.65
2023-09-17T16:06:40.956Z,1.80
2023-09-17T16:09:07.690Z,1.90
2023-09-17T16:11:34.415Z,1.80
2023-09-17T16:14:01.172Z,1.92
2023-09-17T16:16:28.093Z,1.65
2023-09-17T16:18:54.970Z,1.60
2023-09-17T16:21:21.830Z,1.75
2023-09-17T16:23:48.550Z,1.90
2023-09-17T16:26:15.533Z,1.80
2023-09-17T16:28:42.277Z,1.70
2023-09-17T16:31:09.123Z,1.67
2023-09-17T16:33:36.026Z,1.88
2023-09-17T16:36:02.799Z,1.70
2023-09-17T16:38:29.555Z,1.40
2023-09-17T16:41:00.825Z,1.70
2023-09-17T16:43:28.038Z,1.90
2023-09-17T16:45:55.012Z,1.65
2023-09-17T16:48:21.944Z,1.35
2023-09-17T16:50:48.624Z,1.60
2023-09-17T16:53:15.387Z,1.35
2023-09-17T16:55:42.926Z,1.60
2023-09-17T16:58:09.731Z,1.63
2023-09-17T17:00:36.369Z,1.65
2023-09-17T17:03:03.213Z,1.45
2023-09-17T17:05:29.930Z,1.80
2023-09-17T17:07:58.351Z,1.50
2023-09-17T17:10:25.821Z,1.77
2023-09-17T17:12:52.524Z,1.75
2023-09-17T17:15:19.321Z,1.58
2023-09-17T17:17:46.063Z,2.40
2023-09-17T17:20:13.890Z,2.80
2023-09-17T17:22:49.558Z,3.00
2023-09-17T17:25:17.079Z,3.15
2023-09-17T17:27:43.901Z,3.25
2023-09-17T17:30:11.604Z,2.70
2023-09-17T17:32:40.978Z,2.45
2023-09-17T17:35:09.064Z,2.35
2023-09-17T17:37:36.084Z,2.72
2023-09-17T17:40:02.868Z,2.55
2023-09-17T17:42:29.676Z,2.50
2023-09-17T17:44:57.169Z,2.50
2023-09-17T17:47:24.509Z,2.20
2023-09-17T17:49:52.125Z,2.28
2023-09-17T17:52:22.178Z,2.20
2023-09-17T17:54:49.482Z,2.10
2023-09-17T17:57:17.056Z,2.30
2023-09-17T17:59:43.856Z,3.00
2023-09-17T18:02:10.919Z,2.90
2023-09-17T18:04:37.705Z,1.63
2023-09-17T18:07:04.662Z,1.75
2023-09-17T18:09:31.923Z,1.83
2023-09-17T18:11:58.696Z,2.03
2023-09-17T18:14:25.556Z,1.90
2023-09-17T18:16:52.366Z,2.40
2023-09-17T18:19:19.120Z,1.88
2023-09-17T18:21:45.869Z,2.08
2023-09-17T18:24:12.606Z,1.85
2023-09-17T18:26:39.275Z,1.70
2023-09-17T18:29:07.965Z,1.80
2023-09-17T18:31:34.806Z,2.00
2023-09-17T18:34:01.702Z,1.70
2023-09-17T18:36:28.457Z,1.98
2023-09-17T18:38:55.476Z,2.13
2023-09-17T18:41:22.348Z,3.10
2023-09-17T18:43:49.295Z,2.22
2023-09-17T18:46:19.226Z,2.08
2023-09-17T18:48:46.089Z,1.63
2023-09-17T18:51:12.950Z,2.13
2023-09-17T18:53:39.634Z,1.80
2023-09-17T18:56:06.348Z,1.65
2023-09-17T18:58:33.108Z,1.60
2023-09-17T19:00:59.924Z,1.80
2023-09-17T19:03:26.767Z,1.80
2023-09-17T19:05:53.601Z,1.50
2023-09-17T19:08:20.381Z,1.80
2023-09-17T19:10:49.182Z,1.85
2023-09-17T19:13:17.270Z,2.10
2023-09-17T19:15:45.933Z,1.95
2023-09-17T19:18:12.930Z,1.90
2023-09-17T19:20:39.806Z,1.83
2023-09-17T19:23:07.928Z,2.00
2023-09-17T19:25:35.057Z,2.15
2023-09-17T19:28:01.872Z,1.73
2023-09-17T19:30:28.601Z,2.25
2023-09-17T19:32:55.433Z,1.95
2023-09-17T19:35:22.742Z,2.10
2023-09-17T19:37:49.793Z,1.85
2023-09-17T19:40:16.524Z,2.00
2023-09-17T19:42:43.535Z,1.90
2023-09-17T19:45:10.479Z,2.10
2023-09-17T19:47:37.345Z,2.58
2023-09-17T19:50:04.591Z,2.40
2023-09-17T19:52:31.378Z,2.38
2023-09-17T19:54:58.150Z,2.30
2023-09-17T19:57:25.558Z,2.28
2023-09-17T19:59:52.746Z,2.35
2023-09-17T20:02:20.738Z,2.15
2023-09-17T20:04:47.708Z,2.40
2023-09-17T20:07:14.468Z,2.38
2023-09-17T20:09:41.213Z,2.50
2023-09-17T20:12:08.371Z,2.60
2023-09-17T20:14:35.140Z,2.30
2023-09-17T20:17:01.868Z,2.45
2023-09-17T20:19:28.629Z,2.35
2023-09-17T20:21:55.394Z,2.30
2023-09-17T20:24:22.158Z,2.50
2023-09-17T20:26:48.891Z,2.88
2023-09-17T20:29:15.694Z,2.33
2023-09-17T20:31:42.665Z,2.30
2023-09-17T20:34:10.206Z,2.28
2023-09-17T20:36:36.982Z,2.40
2023-09-17T20:39:06.813Z,2.47
2023-09-17T20:41:34.284Z,2.50
2023-09-17T20:44:01.112Z,2.40
2023-09-17T20:46:27.803Z,2.40
2023-09-17T20:48:57.578Z,2.95
2023-09-17T20:51:26.249Z,2.70
2023-09-17T20:53:53.298Z,2.70
2023-09-17T20:56:20.880Z,3.08
2023-09-17T20:58:48.882Z,2.75
2023-09-17T21:01:15.788Z,3.05
2023-09-17T21:03:43.726Z,2.83
2023-09-17T21:06:10.560Z,3.00
2023-09-17T21:08:37.464Z,2.65
2023-09-17T21:11:04.229Z,2.72
2023-09-17T21:13:31.108Z,2.58
2023-09-17T21:15:57.967Z,2.80
2023-09-17T21:18:24.904Z,2.92
2023-09-17T21:20:52.715Z,2.95
2023-09-17T21:23:19.437Z,2.67
2023-09-17T21:25:46.268Z,2.70
2023-09-17T21:28:12.982Z,2.60
2023-09-17T21:30:42.672Z,2.95
2023-09-17T21:33:09.365Z,3.15
2023-09-17T21:35:36.244Z,2.85
2023-09-17T21:38:03.048Z,2.97
2023-09-17T21:40:29.983Z,2.95
2023-09-17T21:42:56.694Z,2.97
2023-09-17T21:45:23.518Z,2.95
2023-09-17T21:47:50.308Z,3.13
2023-09-17T21:50:17.275Z,2.80
2023-09-17T21:52:44.180Z,2.80
2023-09-17T21:55:10.899Z,2.65
2023-09-17T21:57:37.594Z,2.90
2023-09-17T22:00:06.536Z,3.10
2023-09-17T22:02:33.360Z,2.83
2023-09-17T22:05:00.256Z,2.63
2023-09-17T22:07:27.524Z,3.38
2023-09-17T22:09:54.221Z,3.08
2023-09-17T22:12:21.220Z,3.55
2023-09-17T22:14:47.910Z,3.15
2023-09-17T22:17:17.634Z,3.05
2023-09-17T22:19:49.922Z,3.25
2023-09-17T22:22:16.775Z,3.42
2023-09-17T22:24:45.188Z,3.72
2023-09-17T22:27:13.642Z,2.90
2023-09-17T22:29:42.478Z,3.42
2023-09-17T22:32:09.168Z,3.47
2023-09-17T22:34:36.134Z,3.30
2023-09-17T22:37:03.061Z,3.08
2023-09-17T22:39:29.979Z,3.22
2023-09-17T22:41:56.648Z,3.15
2023-09-17T22:44:24.663Z,2.67
2023-09-17T22:46:52.318Z,3.20
2023-09-17T22:49:19.264Z,3.53
2023-09-17T22:51:45.994Z,3.15
2023-09-17T22:54:12.721Z,3.95
2023-09-17T22:56:39.441Z,3.60
2023-09-17T22:59:06.315Z,3.50
2023-09-17T23:01:33.543Z,3.50
2023-09-17T23:04:00.388Z,3.88
2023-09-17T23:06:27.875Z,3.55
2023-09-17T23:08:55.878Z,3.60
2023-09-17T23:11:22.895Z,4.18
2023-09-17T23:13:49.844Z,3.90
2023-09-17T23:16:16.906Z,4.03
2023-09-17T23:18:43.854Z,4.20
2023-09-17T23:21:14.791Z,4.13
2023-09-17T23:23:45.957Z,3.97
2023-09-17T23:26:14.168Z,5.80
2023-09-17T23:28:41.198Z,4.03
2023-09-17T23:31:09.921Z,4.15
2023-09-17T23:33:37.003Z,3.85
2023-09-17T23:36:04.371Z,4.25
2023-09-17T23:38:31.727Z,3.72
2023-09-17T23:40:58.728Z,4.10
2023-09-17T23:43:25.709Z,4.53
2023-09-17T23:45:52.936Z,4.05
2023-09-17T23:48:19.752Z,4.40
2023-09-17T23:50:46.896Z,4.30
2023-09-17T23:53:13.649Z,4.43
2023-09-17T23:55:40.653Z,4.50
2023-09-17T23:58:07.366Z,5.00
